(°C)
26°
27°
28°
28°
29°
29°
30°
(°C)
28°
30°
31°
31°
32°
32°
33°
ВСВ
ВСВ
СВ
ССВ
ССВ
СВ
СВ
(км/ч)
3-7
3-10
3-12
4-13
5-14
4-14
2-13
(мм)
0
0
0
0
0
0
0
(%)
8
2
17
16
23
15
23

Высота солнцестояния

/ 29.9°
sun-icon
UV 5
02:57
20:33
Полнолуние (176°)
20:41
02:10

METAR для 55.61°С 49.28°В (UWKD)

Время Условия Температура/
Точка росы
Ветер Видимость Погода Облачность Давление Изменить Необработанный
VFR 24°C / 17°C 320º 4kt >10km - Clouds and Visibility OK 1019 No Significant change UWKD 240330Z 32002MPS CAVOK 24/17 Q1019 R29/CLRD70 NOSIG RMK QFE753/1004
VFR 23°C / 17°C 300º variable 280º to 340º 4kt >10km - Clouds and Visibility OK 1019 No Significant change UWKD 240300Z 30002MPS 280V340 CAVOK 23/17 Q1019 R29/70D NOSIG RMK QFE753/1004
VFR 21°C / 16°C 280º 4kt >10km - Clouds and Visibility OK 1019 No Significant change UWKD 240230Z 28002MPS CAVOK 21/16 Q1019 R29/CLRD70 NOSIG RMK QFE753/1004
VFR 22°C / 17°C 290º 2kt >10km - Clouds and Visibility OK 1019 No Significant change UWKD 240200Z 29001MPS CAVOK 22/17 Q1019 R29/CLRD70 NOSIG RMK QFE753/1004
VFR 21°C / 16°C 100º 2kt >10km - Clouds and Visibility OK 1019 No Significant change UWKD 240130Z 10001MPS CAVOK 21/16 Q1019 R29/CLRD70 NOSIG RMK QFE753/1004
VFR 20°C / 15°C 110º 2kt >10km - Clouds and Visibility OK 1019 No Significant change UWKD 240100Z 11001MPS CAVOK 20/15 Q1019 R29/CLRD70 NOSIG RMK QFE753/1004
VFR 18°C / 15°C variable 0kt >10km - Clouds and Visibility OK 1019 No Significant change UWKD 240030Z 00000MPS CAVOK 18/15 Q1019 R29/CLRD70 NOSIG RMK QFE753/1004
VFR 19°C / 15°C variable 2kt >10km - Clouds and Visibility OK 1019 No Significant change UWKD 240000Z VRB01MPS CAVOK 19/15 Q1019 R29/CLRD70 NOSIG RMK QFE753/1004
VFR 20°C / 15°C 110º variable 070º to 130º 4kt >10km - Clouds and Visibility OK 1019 No Significant change UWKD 232330Z 11002MPS 070V130 CAVOK 20/15 Q1019 R29/CLRD70 NOSIG RMK QFE753/1004
VFR 21°C / 15°C 340º 4kt >10km - Clouds and Visibility OK 1018 No Significant change UWKD 232300Z 34002MPS CAVOK 21/15 Q1018 R29/70D NOSIG RMK QFE753/1004
VFR 21°C / 16°C 350º 6kt >10km - Clouds and Visibility OK 1018 No Significant change UWKD 232230Z 35003MPS CAVOK 21/16 Q1018 R29/CLRD70 NOSIG RMK QFE753/1004
VFR 21°C / 16°C 10º 6kt >10km - Clouds and Visibility OK 1018 No Significant change UWKD 232200Z 01003MPS CAVOK 21/16 Q1018 R29/CLRD70 NOSIG RMK QFE753/1004
VFR 22°C / 16°C 350º 8kt >10km - Clouds and Visibility OK 1018 No Significant change UWKD 232130Z 35004MPS CAVOK 22/16 Q1018 R29/70D NOSIG RMK QFE753/1004
VFR 21°C / 16°C 330º 8kt >10km - Clouds and Visibility OK 1018 No Significant change UWKD 232100Z 33004MPS CAVOK 21/16 Q1018 R29/CLRD70 NOSIG RMK QFE753/1004
VFR 22°C / 16°C 320º 8kt >10km - Clouds and Visibility OK 1018 No Significant change UWKD 232030Z 32004MPS CAVOK 22/16 Q1018 R29/CLRD70 NOSIG RMK QFE753/1004
VFR 22°C / 15°C 340º 6kt >10km - Clouds and Visibility OK 1018 No Significant change UWKD 232000Z 34003MPS CAVOK 22/15 Q1018 R29/CLRD70 NOSIG RMK QFE752/1003
VFR 23°C / 14°C 350º 8kt >10km - Clouds and Visibility OK 1019 No Significant change UWKD 231930Z 35004MPS CAVOK 23/14 Q1019 R29/CLRD70 NOSIG RMK QFE753/1004
VFR 24°C / 15°C 10º 6kt >10km - Clouds and Visibility OK 1018 No Significant change UWKD 231900Z 01003MPS CAVOK 24/15 Q1018 R29/CLRD70 NOSIG RMK QFE753/1004
VFR 24°C / 15°C 10º 8kt >10km - Clouds and Visibility OK 1018 No Significant change UWKD 231830Z 01004MPS CAVOK 24/15 Q1018 R29/CLRD70 NOSIG RMK QFE752/1003
VFR 25°C / 15°C 10º 8kt >10km - Clouds and Visibility OK 1018 No Significant change UWKD 231800Z 01004MPS CAVOK 25/15 Q1018 R29/CLRD70 NOSIG RMK QFE752/1003
VFR 26°C / 15°C 30º variable 360º to 060º 8kt >10km - Few Clouds 5000ft 1018 No Significant change UWKD 231730Z 03004MPS 360V060 9999 FEW050CB 26/15 Q1018 R29/CLRD70 NOSIG RMK QFE752/1003
VFR 27°C / 16°C 30º 10kt >10km - Few Clouds 5000ft 1018 No Significant change UWKD 231700Z 03005MPS 9999 FEW050CB 27/16 Q1018 R29/CLRD70 NOSIG RMK QFE752/1003
VFR 28°C / 16°C 330º 8kt >10km - Few Clouds 5000ft 1018 No Significant change UWKD 231630Z 33004MPS 9999 FEW050CB 28/16 Q1018 R29/CLRD70 NOSIG RMK QFE752/1003
VFR 30°C / 16°C 300º 8kt >10km in the Vicinity Thunderstorm Vertical Visibility of 0ft. 1018 No Significant change UWKD 231600Z 30004MPS 9999 VCTS FEW050CB 30/16 Q1018 R29/CLRD70 NOSIG RMK QFE752/1003

VFR

24°C / 17°C

[Больше]
Ветер 320º 4kt
Видимость >10km
Погода -
Облачность Clouds and Visibility OK
Давление 1019
Изменить No Significant change
Необработанный UWKD 240330Z 32002MPS CAVOK 24/17 Q1019 R29/CLRD70 NOSIG RMK QFE753/1004

VFR

23°C / 17°C

[Больше]
Ветер 300º variable 280º to 340º 4kt
Видимость >10km
Погода -
Облачность Clouds and Visibility OK
Давление 1019
Изменить No Significant change
Необработанный UWKD 240300Z 30002MPS 280V340 CAVOK 23/17 Q1019 R29/70D NOSIG RMK QFE753/1004

VFR

21°C / 16°C

[Больше]
Ветер 280º 4kt
Видимость >10km
Погода -
Облачность Clouds and Visibility OK
Давление 1019
Изменить No Significant change
Необработанный UWKD 240230Z 28002MPS CAVOK 21/16 Q1019 R29/CLRD70 NOSIG RMK QFE753/1004

VFR

22°C / 17°C

[Больше]
Ветер 290º 2kt
Видимость >10km
Погода -
Облачность Clouds and Visibility OK
Давление 1019
Изменить No Significant change
Необработанный UWKD 240200Z 29001MPS CAVOK 22/17 Q1019 R29/CLRD70 NOSIG RMK QFE753/1004

VFR

21°C / 16°C

[Больше]
Ветер 100º 2kt
Видимость >10km
Погода -
Облачность Clouds and Visibility OK
Давление 1019
Изменить No Significant change
Необработанный UWKD 240130Z 10001MPS CAVOK 21/16 Q1019 R29/CLRD70 NOSIG RMK QFE753/1004

VFR

20°C / 15°C

[Больше]
Ветер 110º 2kt
Видимость >10km
Погода -
Облачность Clouds and Visibility OK
Давление 1019
Изменить No Significant change
Необработанный UWKD 240100Z 11001MPS CAVOK 20/15 Q1019 R29/CLRD70 NOSIG RMK QFE753/1004

VFR

18°C / 15°C

[Больше]
Ветер variable 0kt
Видимость >10km
Погода -
Облачность Clouds and Visibility OK
Давление 1019
Изменить No Significant change
Необработанный UWKD 240030Z 00000MPS CAVOK 18/15 Q1019 R29/CLRD70 NOSIG RMK QFE753/1004

VFR

19°C / 15°C

[Больше]
Ветер variable 2kt
Видимость >10km
Погода -
Облачность Clouds and Visibility OK
Давление 1019
Изменить No Significant change
Необработанный UWKD 240000Z VRB01MPS CAVOK 19/15 Q1019 R29/CLRD70 NOSIG RMK QFE753/1004

VFR

20°C / 15°C

[Больше]
Ветер 110º variable 070º to 130º 4kt
Видимость >10km
Погода -
Облачность Clouds and Visibility OK
Давление 1019
Изменить No Significant change
Необработанный UWKD 232330Z 11002MPS 070V130 CAVOK 20/15 Q1019 R29/CLRD70 NOSIG RMK QFE753/1004

VFR

21°C / 15°C

[Больше]
Ветер 340º 4kt
Видимость >10km
Погода -
Облачность Clouds and Visibility OK
Давление 1018
Изменить No Significant change
Необработанный UWKD 232300Z 34002MPS CAVOK 21/15 Q1018 R29/70D NOSIG RMK QFE753/1004

VFR

21°C / 16°C

[Больше]
Ветер 350º 6kt
Видимость >10km
Погода -
Облачность Clouds and Visibility OK
Давление 1018
Изменить No Significant change
Необработанный UWKD 232230Z 35003MPS CAVOK 21/16 Q1018 R29/CLRD70 NOSIG RMK QFE753/1004

VFR

21°C / 16°C

[Больше]
Ветер 10º 6kt
Видимость >10km
Погода -
Облачность Clouds and Visibility OK
Давление 1018
Изменить No Significant change
Необработанный UWKD 232200Z 01003MPS CAVOK 21/16 Q1018 R29/CLRD70 NOSIG RMK QFE753/1004

VFR

22°C / 16°C

[Больше]
Ветер 350º 8kt
Видимость >10km
Погода -
Облачность Clouds and Visibility OK
Давление 1018
Изменить No Significant change
Необработанный UWKD 232130Z 35004MPS CAVOK 22/16 Q1018 R29/70D NOSIG RMK QFE753/1004

VFR

21°C / 16°C

[Больше]
Ветер 330º 8kt
Видимость >10km
Погода -
Облачность Clouds and Visibility OK
Давление 1018
Изменить No Significant change
Необработанный UWKD 232100Z 33004MPS CAVOK 21/16 Q1018 R29/CLRD70 NOSIG RMK QFE753/1004

VFR

22°C / 16°C

[Больше]
Ветер 320º 8kt
Видимость >10km
Погода -
Облачность Clouds and Visibility OK
Давление 1018
Изменить No Significant change
Необработанный UWKD 232030Z 32004MPS CAVOK 22/16 Q1018 R29/CLRD70 NOSIG RMK QFE753/1004

VFR

22°C / 15°C

[Больше]
Ветер 340º 6kt
Видимость >10km
Погода -
Облачность Clouds and Visibility OK
Давление 1018
Изменить No Significant change
Необработанный UWKD 232000Z 34003MPS CAVOK 22/15 Q1018 R29/CLRD70 NOSIG RMK QFE752/1003

VFR

23°C / 14°C

[Больше]
Ветер 350º 8kt
Видимость >10km
Погода -
Облачность Clouds and Visibility OK
Давление 1019
Изменить No Significant change
Необработанный UWKD 231930Z 35004MPS CAVOK 23/14 Q1019 R29/CLRD70 NOSIG RMK QFE753/1004

VFR

24°C / 15°C

[Больше]
Ветер 10º 6kt
Видимость >10km
Погода -
Облачность Clouds and Visibility OK
Давление 1018
Изменить No Significant change
Необработанный UWKD 231900Z 01003MPS CAVOK 24/15 Q1018 R29/CLRD70 NOSIG RMK QFE753/1004

VFR

24°C / 15°C

[Больше]
Ветер 10º 8kt
Видимость >10km
Погода -
Облачность Clouds and Visibility OK
Давление 1018
Изменить No Significant change
Необработанный UWKD 231830Z 01004MPS CAVOK 24/15 Q1018 R29/CLRD70 NOSIG RMK QFE752/1003

VFR

25°C / 15°C

[Больше]
Ветер 10º 8kt
Видимость >10km
Погода -
Облачность Clouds and Visibility OK
Давление 1018
Изменить No Significant change
Необработанный UWKD 231800Z 01004MPS CAVOK 25/15 Q1018 R29/CLRD70 NOSIG RMK QFE752/1003

VFR

26°C / 15°C

[Больше]
Ветер 30º variable 360º to 060º 8kt
Видимость >10km
Погода -
Облачность Few Clouds 5000ft
Давление 1018
Изменить No Significant change
Необработанный UWKD 231730Z 03004MPS 360V060 9999 FEW050CB 26/15 Q1018 R29/CLRD70 NOSIG RMK QFE752/1003

VFR

27°C / 16°C

[Больше]
Ветер 30º 10kt
Видимость >10km
Погода -
Облачность Few Clouds 5000ft
Давление 1018
Изменить No Significant change
Необработанный UWKD 231700Z 03005MPS 9999 FEW050CB 27/16 Q1018 R29/CLRD70 NOSIG RMK QFE752/1003

VFR

28°C / 16°C

[Больше]
Ветер 330º 8kt
Видимость >10km
Погода -
Облачность Few Clouds 5000ft
Давление 1018
Изменить No Significant change
Необработанный UWKD 231630Z 33004MPS 9999 FEW050CB 28/16 Q1018 R29/CLRD70 NOSIG RMK QFE752/1003

VFR

30°C / 16°C

[Больше]
Ветер 300º 8kt
Видимость >10km
Погода in the Vicinity Thunderstorm
Облачность Vertical Visibility of 0ft.
Давление 1018
Изменить No Significant change
Необработанный UWKD 231600Z 30004MPS 9999 VCTS FEW050CB 30/16 Q1018 R29/CLRD70 NOSIG RMK QFE752/1003

TAF для 55.61°С 49.28°В (UWKD)

From till


Maximum Temperature 33ºC on . Minimum Temperature 20ºC on .
From till Wind variable 2kt. Visibility 10km or more. Scattered Clouds 3000ft.
Temporarly from till Wind variable 29kt. Visibility 3100m. Light Thunderstorm Rain Light Thunderstorm Hail Squalls . Broken Clouds 4000ft.
Becoming from till Wind 260º 6kt. Visibility 10km or more. Scattered Clouds 3000ft.

Необработанный: TAF UWKD 240155Z 2403/2503 VRB01MPS 9999 SCT030 TX33/2410Z TN20/2500Z TEMPO 2409/2418 VRB15MPS 3100 -TSRAGR SQ BKN040CB BECMG 2418/2420 26003MPS

Текущие спутниковые изображения и снимки дождя для 55.61°С 49.28°В

Указатель местности находится на 55.61°С 49.28°В. [Больше]

Спутниковое изображение в реальном времени сочетает в себе видимый свет в дневное время с инфракрасным излучением в ночное время. Ночью изображение получается не темным, так как инфракрасное излучение может обнаружить разницу температур. К сожалению, низкие облака и туман трудно отличить от температуры у поверхности земли и поэтому могут быть почти незаметны ночью. Спутниковые снимки Meteosat для Европы обновляются каждые 5 минут в режиме реального времени.Снимки GOES-16/GOES-17 (Северная и Южная Америка) и Химавари (Азия) обновляются каждые 10 минут.

Копирайт 2021 EUMETSAT / meteoblue. / Копирайт 2021 meteoblue

Радарный и сверхкраткосрочный прогноз осадков для 55.61°С 49.28°В

Индикатор местности находится на 55.61°С 49.28°В. Анимация показывает радар осадков за последний час, а также прогноз погоды для1h. Умеренная морось или легкий снег могут быть незаметны для радара. Интенсивность осадковмаркированна цветной кодировкой, начиная со светло-синего и заканчивая темно-пурпурным.